Latest Coastal Weather Observations for Rowley Shoals

IDW60701

Issued at 2:23 am WST Friday 24 February 2017 (issued every 10 minutes, with the page automatically refreshed every 10 minutes)

About coastal observations | Map of coastal stations | Coastal observations for WA | Marine services | Other Formats
Station Details ID: 200713 Name: ROWLEY SHOALS Lat: -17.52 Lon: 118.95 Height: 0.0 m
Data from the previous 72 hours. | See also: Recent months at Rowley Shoals
Date/Time
WST
Temp
°C
Wind Pressure Rain since
9am
mm
Weather Cloud Vis
km
Sea
Height
m
Swell
Dir  Spd
kts
Gust
kts
hPa Trend Height
m
Period
s
Dir
24/02:00am 29.0 SSE 9 12 1011.3 - - - - - - - - -
24/01:30am 28.7 WSW 8 13 1011.2 - - - - - - - - -
24/01:00am 28.5 W 9 10 1010.6 - - - - - - - - -
24/12:30am 28.7 W 8 10 1010.9 - - - - - - - - -
24/12:00am 28.7 WSW 8 9 1011.2 - - - - - - - - -
 
Date/Time
WST
Temp
°C
Wind Pressure Rain since
9am
mm
Weather Cloud Vis
km
Sea
Height
m
Swell
Dir  Spd
kts
Gust
kts
hPa Trend Height
m
Period
s
Dir
23/11:30pm 29.0 WSW 6 8 1011.7 - - - - - - - - -
23/11:00pm 29.1 SSW 7 9 1011.9 - - - - - - - - -
23/10:30pm 28.9 SW 9 11 1012.2 - - - - - - - - -
23/10:00pm 29.0 SW 9 10 1012.0 - - - - - - - - -
23/09:30pm 29.2 SW 8 9 1012.0 - - - - - - - - -
23/09:00pm 29.1 SW 9 11 1011.7 - - - - - - - - -
23/08:47pm 29.1 SW 8 10 1011.7 - - - - - - - - -
23/08:46pm -1.9 SSW 8 9 1011.7 - - - - - - - - -
23/08:45pm -36.9 SSW 8 9 1011.7 - - - - - - - - -
23/08:30pm 29.2 SSW 9 10 1011.5 - - - - - - - - -
23/08:00pm 29.2 S 8 10 1011.2 - - - - - - - - -
23/07:30pm 29.2 SSW 8 10 1010.8 - - - - - - - - -
23/07:00pm 29.2 S 6 8 1010.4 - - - - - - - - -
23/06:30pm 29.3 S 6 8 1010.1 - - - - - - - - -
23/06:00pm 29.2 SSW 5 7 1009.9 - - - - - - - - -
23/05:30pm 29.5 SSW 5 7 1009.8 - - - - - - - - -
23/05:00pm 29.7 SSW 5 8 1009.5 - - - - - - - - -
23/04:30pm 29.6 S 6 9 1009.4 - - - - - - - - -
23/04:00pm 29.6 S 8 9 1009.4 - - - - - - - - -
23/03:30pm 29.3 SSW 8 10 1009.9 - - - - - - - - -
23/03:00pm 29.3 SSW 7 9 1010.0 - - - - - - - - -
23/02:30pm 29.5 SSW 8 10 1010.2 - - - - - - - - -
23/02:00pm 29.1 SSW 9 11 1010.4 - - - - - - - - -
23/01:30pm 29.1 SSW 10 12 1010.6 - - - - - - - - -
23/01:00pm 29.0 SSW 10 12 1010.7 - - - - - - - - -
23/12:30pm 28.7 SSW 9 11 1011.2 - - - - - - - - -
23/12:00pm 28.6 SSW 8 9 1011.4 - - - - - - - - -
23/11:30am 28.4 SW 7 9 1011.7 - - - - - - - - -
23/11:00am 28.4 SW 7 8 1011.6 - - - - - - - - -
23/10:30am 28.2 SW 6 8 1012.0 - - - - - - - - -
23/10:00am 28.2 WSW 6 7 1012.0 - - - - - - - - -
23/09:30am 28.1 SW 6 8 1012.5 - - - - - - - - -
23/09:00am 28.1 SW 7 8 1012.5 - - - - - - - - -
23/08:30am 28.1 SW 4 5 1012.4 - - - - - - - - -
23/08:00am 28.1 SW 3 4 1012.1 - - - - - - - - -
23/07:30am 28.0 WSW 5 5 1011.7 - - - - - - - - -
23/07:00am 27.9 WSW 6 7 1011.3 - - - - - - - - -
23/06:30am 27.9 WSW 7 8 1011.1 - - - - - - - - -
23/06:00am 27.8 W 8 9 1010.8 - - - - - - - - -
23/05:30am 27.8 W 8 9 1010.6 - - - - - - - - -
23/05:00am 27.7 W 10 11 1010.2 - - - - - - - - -
23/04:30am 27.8 W 10 12 1009.9 - - - - - - - - -
23/04:00am 27.9 WNW 9 11 1009.9 - - - - - - - - -
23/03:30am 27.9 WNW 9 11 1009.9 - - - - - - - - -
23/03:00am 27.7 NW 9 11 1009.5 - - - - - - - - -
23/02:30am 27.9 NW 9 11 1009.6 - - - - - - - - -
23/02:00am 27.9 WNW 8 10 1009.9 - - - - - - - - -
23/01:30am 27.9 NW 8 10 1010.2 - - - - - - - - -
23/01:00am 27.9 NNW 9 11 1009.5 - - - - - - - - -
23/12:30am 28.0 WNW 5 7 1011.2 - - - - - - - - -
23/12:00am 28.0 WNW 5 7 1011.9 - - - - - - - - -
 
Date/Time
WST
Temp
°C
Wind Pressure Rain since
9am
mm
Weather Cloud Vis
km
Sea
Height
m
Swell
Dir  Spd
kts
Gust
kts
hPa Trend Height
m
Period
s
Dir
22/11:30pm 28.1 NW 5 6 1012.1 - - - - - - - - -
22/11:00pm 28.3 WNW 6 8 1012.4 - - - - - - - - -
22/10:30pm 28.1 NW 4 6 1012.2 - - - - - - - - -
22/10:00pm 28.2 NW 5 6 1012.4 - - - - - - - - -
22/09:30pm 28.3 NW 5 7 1012.4 - - - - - - - - -
22/09:00pm 28.3 W 5 6 1012.3 - - - - - - - - -
22/08:30pm 28.3 WSW 4 6 1012.3 - - - - - - - - -
22/08:00pm 28.3 W 4 6 1012.0 - - - - - - - - -
22/07:30pm 28.4 WNW 5 6 1011.0 - - - - - - - - -
22/07:00pm 28.4 NW 5 6 1010.3 - - - - - - - - -
22/06:30pm 28.3 WNW 4 6 1009.8 - - - - - - - - -
22/06:00pm 28.6 NW 5 6 1009.5 - - - - - - - - -
22/05:39pm 28.7 NW 4 5 1009.2 - - - - - - - - -
22/05:38pm -22.6 NW 4 6 1009.3 - - - - - - - - -
22/05:30pm 28.9 NW 5 6 1009.2 - - - - - - - - -
22/05:00pm 29.0 WNW 2 4 1008.9 - - - - - - - - -
22/04:30pm 29.1 W 3 5 1009.0 - - - - - - - - -
22/04:00pm 29.1 WSW 6 7 1009.0 - - - - - - - - -
22/03:30pm 28.9 WSW 6 7 1009.5 - - - - - - - - -
22/03:00pm 28.9 W 6 7 1009.6 - - - - - - - - -
22/02:30pm 28.7 W 7 9 1009.8 - - - - - - - - -
22/02:00pm 28.8 W 9 11 1009.9 - - - - - - - - -
22/01:30pm 28.7 W 9 11 1010.4 - - - - - - - - -
22/01:00pm 28.6 W 8 9 1010.5 - - - - - - - - -
22/12:30pm 28.6 W 9 10 1011.0 - - - - - - - - -
22/12:00pm 28.7 WSW 9 10 1011.1 - - - - - - - - -
22/11:30am 28.5 W 9 11 1011.5 - - - - - - - - -
22/11:00am 28.5 W 9 10 1011.5 - - - - - - - - -
22/10:30am 28.5 W 8 9 1012.0 - - - - - - - - -
22/10:00am 28.5 WSW 7 8 1012.1 - - - - - - - - -
22/09:30am 28.4 WSW 9 10 1012.4 - - - - - - - - -
22/09:00am 28.4 WSW 9 11 1012.2 - - - - - - - - -
22/08:30am 28.3 W 10 11 1012.1 - - - - - - - - -
22/08:00am 28.3 WSW 11 12 1011.9 - - - - - - - - -
22/07:30am 28.2 W 11 13 1011.7 - - - - - - - - -
22/07:00am 28.3 W 11 13 1011.5 - - - - - - - - -
22/06:30am 28.1 W 13 15 1011.4 - - - - - - - - -
22/06:00am 28.3 W 13 15 1011.4 - - - - - - - - -
22/05:30am 28.3 W 13 16 1011.2 - - - - - - - - -
22/05:00am 28.3 W 13 15 1011.0 - - - - - - - - -
22/04:30am 28.2 W 13 15 1010.8 - - - - - - - - -
22/04:00am 28.2 W 13 16 1010.3 - - - - - - - - -
22/03:30am 28.3 WNW 14 16 1010.1 - - - - - - - - -
22/03:00am 28.2 WNW 13 15 1010.1 - - - - - - - - -
22/02:30am 28.3 WNW 14 17 1010.0 - - - - - - - - -
22/02:00am 28.2 NW 14 16 1009.8 - - - - - - - - -
22/01:30am 28.1 NW 14 16 1009.9 - - - - - - - - -
22/01:00am 28.3 NW 13 16 1010.0 - - - - - - - - -
22/12:30am 28.5 NW 13 15 1010.4 - - - - - - - - -
22/12:00am 28.5 NW 12 14 1010.5 - - - - - - - - -
 
Date/Time
WST
Temp
°C
Wind Pressure Rain since
9am
mm
Weather Cloud Vis
km
Sea
Height
m
Swell
Dir  Spd
kts
Gust
kts
hPa Trend Height
m
Period
s
Dir
21/11:30pm 28.5 NW 11 12 1011.1 - - - - - - - - -
21/11:00pm 28.4 NW 11 12 1011.2 - - - - - - - - -
21/10:30pm 28.6 WNW 11 12 1011.8 - - - - - - - - -
21/10:00pm 28.4 NW 10 11 1011.5 - - - - - - - - -
21/09:30pm 28.5 NNW 8 11 1011.4 - - - - - - - - -
21/09:00pm 28.6 NW 8 9 1011.2 - - - - - - - - -
21/08:30pm 28.5 NW 7 9 1011.1 - - - - - - - - -
21/08:10pm 24.1 WNW 7 9 1011.0 - - - - - - - - -
21/08:09pm -6.6 WNW 7 9 1011.0 - - - - - - - - -
21/08:08pm -35.1 WNW 7 9 1011.0 - - - - - - - - -
21/08:00pm -35.1 WNW 7 8 1010.9 - - - - - - - - -
21/07:30pm 28.6 W 7 9 1010.5 - - - - - - - - -
21/07:00pm 28.5 WNW 7 9 1010.1 - - - - - - - - -
21/06:30pm 28.6 WNW 7 9 1009.5 - - - - - - - - -
21/06:00pm 28.6 WNW 7 9 1009.1 - - - - - - - - -
21/05:30pm 28.8 NW 7 8 1008.7 - - - - - - - - -
21/05:00pm 28.9 WNW 7 8 1008.6 - - - - - - - - -
21/04:30pm 28.7 WNW 6 8 1008.4 - - - - - - - - -
21/04:00pm 28.9 WNW 7 8 1008.2 - - - - - - - - -
21/03:30pm 28.8 WNW 8 9 1008.4 - - - - - - - - -
21/03:00pm 28.7 WNW 7 9 1008.3 - - - - - - - - -
21/02:30pm 28.6 NW 7 9 1008.5 - - - - - - - - -
21/02:00pm 28.5 WNW 7 9 1008.6 - - - - - - - - -
21/01:30pm 28.5 W 6 9 1009.2 - - - - - - - - -
21/01:00pm 28.7 WNW 7 8 1009.4 - - - - - - - - -
21/12:30pm 28.6 W 7 8 1010.0 - - - - - - - - -
21/12:00pm 28.6 W 7 8 1010.4 - - - - - - - - -
21/11:30am 28.5 WNW 7 8 1010.7 - - - - - - - - -
21/11:00am 28.5 W 6 7 1010.7 - - - - - - - - -
21/10:30am 28.4 W 6 8 1011.1 - - - - - - - - -
21/10:00am 28.3 W 7 8 1011.1 - - - - - - - - -
21/09:30am 28.2 WSW 6 8 1011.2 - - - - - - - - -
21/09:00am 28.2 W 6 8 1011.2 - - - - - - - - -
21/08:30am 28.2 WSW 6 7 1011.3 - - - - - - - - -
21/08:00am 28.1 W 7 8 1011.2 - - - - - - - - -
21/07:30am 28.1 WSW 7 8 1010.9 - - - - - - - - -
21/07:00am 27.9 WSW 9 10 1010.6 - - - - - - - - -
21/06:30am 27.8 WSW 8 9 1010.5 - - - - - - - - -
21/06:00am 27.8 WSW 9 10 1010.1 - - - - - - - - -
21/05:30am 27.7 W 7 9 1010.0 - - - - - - - - -
21/05:00am 27.7 W 11 13 1009.5 - - - - - - - - -
21/04:30am 27.6 W 10 11 1009.0 - - - - - - - - -
21/04:00am 27.7 WNW 9 11 1008.8 - - - - - - - - -
21/03:30am 27.7 WNW 9 11 1008.7 - - - - - - - - -
21/03:00am 27.6 WNW 10 11 1008.5 - - - - - - - - -
21/02:30am 27.8 WNW 9 11 1008.8 - - - - - - - - -

Other Formats:

Comma delimited format used in spreadsheet applications
http://www.bom.gov.au/fwo/IDW60701/IDW60701.94207.axf

JavaScript Object Notation format (JSON) in row-major order
http://www.bom.gov.au/fwo/IDW60701/IDW60701.94207.json